sensor_id;sensor_type;location;lat;lon;timestamp;P1;durP1;ratioP1;P2;durP2;ratioP2
37791;SDS011;29527;55.766;37.570;2023-11-19T00:00:42;24.00;;;9.35;;
37791;SDS011;29527;55.766;37.570;2023-11-19T00:03:08;15.95;;;7.90;;
37791;SDS011;29527;55.766;37.570;2023-11-19T00:05:35;23.00;;;8.38;;
37791;SDS011;29527;55.766;37.570;2023-11-19T00:08:00;20.00;;;8.70;;
37791;SDS011;29527;55.766;37.570;2023-11-19T00:10:27;23.17;;;8.18;;
37791;SDS011;29527;55.766;37.570;2023-11-19T00:12:52;17.65;;;8.32;;
37791;SDS011;29527;55.766;37.570;2023-11-19T00:15:18;21.33;;;8.98;;
37791;SDS011;29527;55.766;37.570;2023-11-19T00:17:44;19.58;;;8.25;;
37791;SDS011;29527;55.766;37.570;2023-11-19T00:20:11;16.17;;;7.90;;
37791;SDS011;29527;55.766;37.570;2023-11-19T00:22:38;23.30;;;9.15;;
37791;SDS011;29527;55.766;37.570;2023-11-19T00:25:05;15.73;;;7.88;;
37791;SDS011;29527;55.766;37.570;2023-11-19T00:27:31;18.10;;;8.32;;
37791;SDS011;29527;55.766;37.570;2023-11-19T00:29:57;18.15;;;8.55;;
37791;SDS011;29527;55.766;37.570;2023-11-19T00:32:23;16.48;;;8.13;;
37791;SDS011;29527;55.766;37.570;2023-11-19T00:34:49;21.98;;;8.82;;
37791;SDS011;29527;55.766;37.570;2023-11-19T00:37:15;18.88;;;8.57;;
37791;SDS011;29527;55.766;37.570;2023-11-19T00:39:41;24.98;;;8.45;;
37791;SDS011;29527;55.766;37.570;2023-11-19T00:42:07;20.10;;;8.57;;
37791;SDS011;29527;55.766;37.570;2023-11-19T00:44:33;20.73;;;7.90;;
37791;SDS011;29527;55.766;37.570;2023-11-19T00:46:58;17.88;;;8.75;;
37791;SDS011;29527;55.766;37.570;2023-11-19T00:49:25;20.90;;;8.40;;
37791;SDS011;29527;55.766;37.570;2023-11-19T00:51:51;15.07;;;8.13;;
37791;SDS011;29527;55.766;37.570;2023-11-19T00:54:16;18.50;;;8.50;;
37791;SDS011;29527;55.766;37.570;2023-11-19T00:56:42;20.85;;;8.48;;
37791;SDS011;29527;55.766;37.570;2023-11-19T00:59:08;24.27;;;8.57;;
37791;SDS011;29527;55.766;37.570;2023-11-19T01:01:34;19.25;;;9.13;;
37791;SDS011;29527;55.766;37.570;2023-11-19T01:03:59;19.10;;;8.73;;
37791;SDS011;29527;55.766;37.570;2023-11-19T01:06:28;20.48;;;8.27;;
37791;SDS011;29527;55.766;37.570;2023-11-19T01:08:55;21.52;;;9.27;;
37791;SDS011;29527;55.766;37.570;2023-11-19T01:11:22;18.83;;;8.18;;
37791;SDS011;29527;55.766;37.570;2023-11-19T01:13:48;21.15;;;9.18;;
37791;SDS011;29527;55.766;37.570;2023-11-19T01:16:15;21.58;;;9.40;;
37791;SDS011;29527;55.766;37.570;2023-11-19T01:18:41;23.17;;;9.07;;
37791;SDS011;29527;55.766;37.570;2023-11-19T01:21:06;19.58;;;8.45;;
37791;SDS011;29527;55.766;37.570;2023-11-19T01:23:32;18.73;;;8.50;;
37791;SDS011;29527;55.766;37.570;2023-11-19T01:25:58;20.50;;;8.30;;
37791;SDS011;29527;55.766;37.570;2023-11-19T01:28:24;15.77;;;8.20;;
37791;SDS011;29527;55.766;37.570;2023-11-19T01:30:53;20.90;;;8.57;;
37791;SDS011;29527;55.766;37.570;2023-11-19T01:33:19;15.15;;;7.63;;
37791;SDS011;29527;55.766;37.570;2023-11-19T01:35:45;21.08;;;8.60;;
37791;SDS011;29527;55.766;37.570;2023-11-19T01:38:10;22.73;;;8.68;;
37791;SDS011;29527;55.766;37.570;2023-11-19T01:40:36;19.08;;;8.30;;
37791;SDS011;29527;55.766;37.570;2023-11-19T01:43:02;18.92;;;8.27;;
37791;SDS011;29527;55.766;37.570;2023-11-19T01:45:29;19.70;;;8.57;;
37791;SDS011;29527;55.766;37.570;2023-11-19T01:48:00;15.98;;;8.38;;
37791;SDS011;29527;55.766;37.570;2023-11-19T01:50:30;18.42;;;9.18;;
37791;SDS011;29527;55.766;37.570;2023-11-19T01:52:58;21.88;;;8.73;;
37791;SDS011;29527;55.766;37.570;2023-11-19T01:55:25;18.90;;;8.95;;
37791;SDS011;29527;55.766;37.570;2023-11-19T01:57:53;19.92;;;8.77;;
37791;SDS011;29527;55.766;37.570;2023-11-19T02:00:24;18.83;;;8.52;;
37791;SDS011;29527;55.766;37.570;2023-11-19T02:02:50;19.75;;;9.02;;
37791;SDS011;29527;55.766;37.570;2023-11-19T02:05:17;20.23;;;9.95;;
37791;SDS011;29527;55.766;37.570;2023-11-19T02:07:43;22.20;;;9.43;;
37791;SDS011;29527;55.766;37.570;2023-11-19T02:10:09;17.75;;;9.15;;
37791;SDS011;29527;55.766;37.570;2023-11-19T02:12:40;16.42;;;9.00;;
37791;SDS011;29527;55.766;37.570;2023-11-19T02:15:10;19.25;;;9.18;;
37791;SDS011;29527;55.766;37.570;2023-11-19T02:17:36;22.42;;;9.68;;
37791;SDS011;29527;55.766;37.570;2023-11-19T02:20:06;23.70;;;9.45;;
37791;SDS011;29527;55.766;37.570;2023-11-19T02:22:37;22.93;;;10.33;;
37791;SDS011;29527;55.766;37.570;2023-11-19T02:25:25;24.33;;;9.88;;
37791;SDS011;29527;55.766;37.570;2023-11-19T02:27:58;22.67;;;8.95;;
37791;SDS011;29527;55.766;37.570;2023-11-19T02:30:26;24.90;;;9.85;;
37791;SDS011;29527;55.766;37.570;2023-11-19T02:32:55;23.25;;;10.60;;
37791;SDS011;29527;55.766;37.570;2023-11-19T02:35:23;20.75;;;10.32;;
37791;SDS011;29527;55.766;37.570;2023-11-19T02:37:56;18.02;;;9.13;;
37791;SDS011;29527;55.766;37.570;2023-11-19T02:40:21;17.80;;;9.57;;
37791;SDS011;29527;55.766;37.570;2023-11-19T02:42:50;26.70;;;9.68;;
37791;SDS011;29527;55.766;37.570;2023-11-19T02:45:16;23.85;;;9.90;;
37791;SDS011;29527;55.766;37.570;2023-11-19T02:47:42;21.63;;;10.40;;
37791;SDS011;29527;55.766;37.570;2023-11-19T02:50:10;20.17;;;9.93;;
37791;SDS011;29527;55.766;37.570;2023-11-19T02:52:43;25.15;;;10.15;;
37791;SDS011;29527;55.766;37.570;2023-11-19T02:55:11;22.45;;;9.15;;
37791;SDS011;29527;55.766;37.570;2023-11-19T02:57:40;20.92;;;9.32;;
37791;SDS011;29527;55.766;37.570;2023-11-19T03:02:41;19.08;;;9.05;;
37791;SDS011;29527;55.766;37.570;2023-11-19T03:05:13;17.88;;;9.48;;
37791;SDS011;29527;55.766;37.570;2023-11-19T03:07:41;21.85;;;10.98;;
37791;SDS011;29527;55.766;37.570;2023-11-19T03:10:10;25.75;;;11.38;;
37791;SDS011;29527;55.766;37.570;2023-11-19T03:12:39;30.20;;;13.05;;
37791;SDS011;29527;55.766;37.570;2023-11-19T03:15:06;33.28;;;13.38;;
37791;SDS011;29527;55.766;37.570;2023-11-19T03:17:32;36.75;;;16.63;;
37791;SDS011;29527;55.766;37.570;2023-11-19T03:19:59;38.25;;;16.58;;
37791;SDS011;29527;55.766;37.570;2023-11-19T03:22:26;35.30;;;15.82;;
37791;SDS011;29527;55.766;37.570;2023-11-19T03:24:52;37.28;;;16.17;;
37791;SDS011;29527;55.766;37.570;2023-11-19T03:27:17;37.80;;;17.00;;
37791;SDS011;29527;55.766;37.570;2023-11-19T03:29:43;43.95;;;17.58;;
37791;SDS011;29527;55.766;37.570;2023-11-19T03:32:09;40.58;;;16.23;;
37791;SDS011;29527;55.766;37.570;2023-11-19T03:34:34;45.28;;;17.98;;
37791;SDS011;29527;55.766;37.570;2023-11-19T03:37:00;47.22;;;18.13;;
37791;SDS011;29527;55.766;37.570;2023-11-19T03:39:25;39.90;;;17.48;;
37791;SDS011;29527;55.766;37.570;2023-11-19T03:41:52;40.42;;;17.20;;
37791;SDS011;29527;55.766;37.570;2023-11-19T03:44:17;38.67;;;17.35;;
37791;SDS011;29527;55.766;37.570;2023-11-19T03:46:44;38.72;;;17.17;;
37791;SDS011;29527;55.766;37.570;2023-11-19T03:49:09;42.58;;;18.17;;
37791;SDS011;29527;55.766;37.570;2023-11-19T03:51:35;38.03;;;16.65;;
37791;SDS011;29527;55.766;37.570;2023-11-19T03:54:01;42.30;;;17.15;;
37791;SDS011;29527;55.766;37.570;2023-11-19T03:56:26;33.00;;;15.15;;
37791;SDS011;29527;55.766;37.570;2023-11-19T03:58:52;32.70;;;14.48;;
37791;SDS011;29527;55.766;37.570;2023-11-19T04:01:18;29.85;;;13.10;;
37791;SDS011;29527;55.766;37.570;2023-11-19T04:03:44;35.72;;;14.10;;
37791;SDS011;29527;55.766;37.570;2023-11-19T04:06:09;29.27;;;13.90;;
37791;SDS011;29527;55.766;37.570;2023-11-19T04:08:35;38.67;;;14.10;;
37791;SDS011;29527;55.766;37.570;2023-11-19T04:11:02;25.83;;;11.82;;
37791;SDS011;29527;55.766;37.570;2023-11-19T04:13:29;22.38;;;10.75;;
37791;SDS011;29527;55.766;37.570;2023-11-19T04:15:54;21.80;;;10.07;;
37791;SDS011;29527;55.766;37.570;2023-11-19T04:18:20;24.30;;;11.05;;
37791;SDS011;29527;55.766;37.570;2023-11-19T04:20:45;27.73;;;11.43;;
37791;SDS011;29527;55.766;37.570;2023-11-19T04:23:11;18.75;;;9.63;;
37791;SDS011;29527;55.766;37.570;2023-11-19T04:25:37;20.77;;;10.15;;
37791;SDS011;29527;55.766;37.570;2023-11-19T04:28:02;22.15;;;9.57;;
37791;SDS011;29527;55.766;37.570;2023-11-19T04:30:28;24.02;;;8.88;;
37791;SDS011;29527;55.766;37.570;2023-11-19T04:32:54;22.08;;;9.23;;
37791;SDS011;29527;55.766;37.570;2023-11-19T04:35:19;16.38;;;9.40;;
37791;SDS011;29527;55.766;37.570;2023-11-19T04:37:46;18.27;;;9.90;;
37791;SDS011;29527;55.766;37.570;2023-11-19T04:40:12;18.40;;;9.60;;
37791;SDS011;29527;55.766;37.570;2023-11-19T04:42:38;19.58;;;9.20;;
37791;SDS011;29527;55.766;37.570;2023-11-19T04:45:06;18.98;;;10.10;;
37791;SDS011;29527;55.766;37.570;2023-11-19T04:47:36;19.15;;;9.25;;
37791;SDS011;29527;55.766;37.570;2023-11-19T04:50:02;23.42;;;10.80;;
37791;SDS011;29527;55.766;37.570;2023-11-19T04:52:29;27.67;;;11.50;;
37791;SDS011;29527;55.766;37.570;2023-11-19T04:54:55;26.67;;;11.68;;
37791;SDS011;29527;55.766;37.570;2023-11-19T04:57:21;21.35;;;11.93;;
37791;SDS011;29527;55.766;37.570;2023-11-19T04:59:46;23.83;;;11.50;;
37791;SDS011;29527;55.766;37.570;2023-11-19T05:02:12;21.85;;;11.60;;
37791;SDS011;29527;55.766;37.570;2023-11-19T05:04:42;21.25;;;10.95;;
37791;SDS011;29527;55.766;37.570;2023-11-19T05:07:09;24.80;;;12.20;;
37791;SDS011;29527;55.766;37.570;2023-11-19T05:09:35;29.52;;;11.88;;
37791;SDS011;29527;55.766;37.570;2023-11-19T05:12:00;22.95;;;11.35;;
37791;SDS011;29527;55.766;37.570;2023-11-19T05:14:27;21.88;;;11.20;;
37791;SDS011;29527;55.766;37.570;2023-11-19T05:16:53;24.52;;;11.25;;
37791;SDS011;29527;55.766;37.570;2023-11-19T05:19:19;27.55;;;12.35;;
37791;SDS011;29527;55.766;37.570;2023-11-19T05:21:44;23.92;;;10.93;;
37791;SDS011;29527;55.766;37.570;2023-11-19T05:24:10;23.58;;;11.05;;
37791;SDS011;29527;55.766;37.570;2023-11-19T05:26:37;26.30;;;12.38;;
37791;SDS011;29527;55.766;37.570;2023-11-19T05:29:03;22.90;;;10.50;;
37791;SDS011;29527;55.766;37.570;2023-11-19T05:31:29;23.45;;;10.85;;
37791;SDS011;29527;55.766;37.570;2023-11-19T05:33:55;27.90;;;12.10;;
37791;SDS011;29527;55.766;37.570;2023-11-19T05:36:21;20.35;;;11.20;;
37791;SDS011;29527;55.766;37.570;2023-11-19T05:38:46;20.35;;;11.18;;
37791;SDS011;29527;55.766;37.570;2023-11-19T05:41:12;20.23;;;11.52;;
37791;SDS011;29527;55.766;37.570;2023-11-19T05:43:38;35.88;;;11.55;;
37791;SDS011;29527;55.766;37.570;2023-11-19T05:46:06;23.30;;;12.25;;
37791;SDS011;29527;55.766;37.570;2023-11-19T05:48:32;24.63;;;12.30;;
37791;SDS011;29527;55.766;37.570;2023-11-19T05:50:58;23.75;;;12.27;;
37791;SDS011;29527;55.766;37.570;2023-11-19T05:53:24;26.88;;;12.13;;
37791;SDS011;29527;55.766;37.570;2023-11-19T05:55:49;22.20;;;11.75;;
37791;SDS011;29527;55.766;37.570;2023-11-19T05:58:27;25.17;;;11.75;;
37791;SDS011;29527;55.766;37.570;2023-11-19T06:00:54;27.00;;;12.73;;
37791;SDS011;29527;55.766;37.570;2023-11-19T06:03:21;22.63;;;12.20;;
37791;SDS011;29527;55.766;37.570;2023-11-19T06:05:47;25.60;;;12.05;;
37791;SDS011;29527;55.766;37.570;2023-11-19T06:08:14;22.85;;;11.52;;
37791;SDS011;29527;55.766;37.570;2023-11-19T06:10:43;29.65;;;13.60;;
37791;SDS011;29527;55.766;37.570;2023-11-19T06:13:11;22.20;;;12.88;;
37791;SDS011;29527;55.766;37.570;2023-11-19T06:15:40;30.42;;;13.05;;
37791;SDS011;29527;55.766;37.570;2023-11-19T06:18:06;24.52;;;13.15;;
37791;SDS011;29527;55.766;37.570;2023-11-19T06:20:33;25.75;;;13.95;;
37791;SDS011;29527;55.766;37.570;2023-11-19T06:22:59;25.15;;;12.25;;
37791;SDS011;29527;55.766;37.570;2023-11-19T06:25:25;24.88;;;13.15;;
37791;SDS011;29527;55.766;37.570;2023-11-19T06:27:51;26.33;;;13.98;;
37791;SDS011;29527;55.766;37.570;2023-11-19T06:30:18;25.48;;;14.43;;
37791;SDS011;29527;55.766;37.570;2023-11-19T06:32:45;26.95;;;13.50;;
37791;SDS011;29527;55.766;37.570;2023-11-19T06:35:10;23.98;;;13.75;;
37791;SDS011;29527;55.766;37.570;2023-11-19T06:37:38;24.88;;;13.32;;
37791;SDS011;29527;55.766;37.570;2023-11-19T06:40:04;31.10;;;13.60;;
37791;SDS011;29527;55.766;37.570;2023-11-19T06:42:30;27.30;;;12.80;;
37791;SDS011;29527;55.766;37.570;2023-11-19T06:44:56;26.17;;;13.38;;
37791;SDS011;29527;55.766;37.570;2023-11-19T06:47:25;26.45;;;14.10;;
37791;SDS011;29527;55.766;37.570;2023-11-19T06:49:52;24.17;;;13.35;;
37791;SDS011;29527;55.766;37.570;2023-11-19T06:52:18;25.45;;;13.05;;
37791;SDS011;29527;55.766;37.570;2023-11-19T06:54:44;25.95;;;13.38;;
37791;SDS011;29527;55.766;37.570;2023-11-19T06:57:10;27.40;;;13.25;;
37791;SDS011;29527;55.766;37.570;2023-11-19T06:59:36;29.20;;;13.05;;
37791;SDS011;29527;55.766;37.570;2023-11-19T07:02:03;27.90;;;13.68;;
37791;SDS011;29527;55.766;37.570;2023-11-19T07:04:30;28.15;;;12.82;;
37791;SDS011;29527;55.766;37.570;2023-11-19T07:06:56;30.42;;;14.00;;
37791;SDS011;29527;55.766;37.570;2023-11-19T07:09:22;24.48;;;13.35;;
37791;SDS011;29527;55.766;37.570;2023-11-19T07:11:48;29.45;;;13.50;;
37791;SDS011;29527;55.766;37.570;2023-11-19T07:14:16;25.15;;;13.68;;
37791;SDS011;29527;55.766;37.570;2023-11-19T07:16:42;28.40;;;14.10;;
37791;SDS011;29527;55.766;37.570;2023-11-19T07:19:08;34.60;;;14.70;;
37791;SDS011;29527;55.766;37.570;2023-11-19T07:21:34;32.00;;;14.43;;
37791;SDS011;29527;55.766;37.570;2023-11-19T07:24:04;28.45;;;14.23;;
37791;SDS011;29527;55.766;37.570;2023-11-19T07:26:30;27.05;;;15.30;;
37791;SDS011;29527;55.766;37.570;2023-11-19T07:28:55;30.92;;;14.77;;
37791;SDS011;29527;55.766;37.570;2023-11-19T07:31:21;32.35;;;13.70;;
37791;SDS011;29527;55.766;37.570;2023-11-19T07:33:46;26.42;;;13.95;;
37791;SDS011;29527;55.766;37.570;2023-11-19T07:36:13;27.50;;;13.88;;
37791;SDS011;29527;55.766;37.570;2023-11-19T07:38:39;28.48;;;12.80;;
37791;SDS011;29527;55.766;37.570;2023-11-19T07:41:05;27.50;;;14.00;;
37791;SDS011;29527;55.766;37.570;2023-11-19T07:43:31;30.77;;;14.95;;
37791;SDS011;29527;55.766;37.570;2023-11-19T07:45:56;27.48;;;13.30;;
37791;SDS011;29527;55.766;37.570;2023-11-19T07:48:24;29.02;;;13.88;;
37791;SDS011;29527;55.766;37.570;2023-11-19T07:50:51;30.40;;;14.07;;
37791;SDS011;29527;55.766;37.570;2023-11-19T07:53:18;32.47;;;14.20;;
37791;SDS011;29527;55.766;37.570;2023-11-19T07:55:45;31.55;;;14.85;;
37791;SDS011;29527;55.766;37.570;2023-11-19T07:58:11;29.60;;;14.32;;
37791;SDS011;29527;55.766;37.570;2023-11-19T08:00:37;26.10;;;13.57;;
37791;SDS011;29527;55.766;37.570;2023-11-19T08:03:03;31.67;;;14.10;;
37791;SDS011;29527;55.766;37.570;2023-11-19T08:05:29;24.75;;;13.27;;
37791;SDS011;29527;55.766;37.570;2023-11-19T08:07:55;27.33;;;13.25;;
37791;SDS011;29527;55.766;37.570;2023-11-19T08:10:21;28.70;;;13.73;;
37791;SDS011;29527;55.766;37.570;2023-11-19T08:12:47;26.48;;;14.00;;
37791;SDS011;29527;55.766;37.570;2023-11-19T08:15:13;26.67;;;12.95;;
37791;SDS011;29527;55.766;37.570;2023-11-19T08:17:40;31.30;;;13.43;;
37791;SDS011;29527;55.766;37.570;2023-11-19T08:20:07;34.13;;;12.65;;
37791;SDS011;29527;55.766;37.570;2023-11-19T08:22:38;29.23;;;12.70;;
37791;SDS011;29527;55.766;37.570;2023-11-19T08:25:07;27.85;;;13.77;;
37791;SDS011;29527;55.766;37.570;2023-11-19T08:27:33;26.77;;;12.50;;
37791;SDS011;29527;55.766;37.570;2023-11-19T08:29:59;27.77;;;13.60;;
37791;SDS011;29527;55.766;37.570;2023-11-19T08:32:27;29.23;;;13.93;;
37791;SDS011;29527;55.766;37.570;2023-11-19T08:34:53;27.50;;;13.05;;
37791;SDS011;29527;55.766;37.570;2023-11-19T08:37:19;26.80;;;13.15;;
37791;SDS011;29527;55.766;37.570;2023-11-19T08:39:49;24.75;;;12.75;;
37791;SDS011;29527;55.766;37.570;2023-11-19T08:42:16;31.05;;;13.55;;
37791;SDS011;29527;55.766;37.570;2023-11-19T08:44:42;25.58;;;13.68;;
37791;SDS011;29527;55.766;37.570;2023-11-19T08:47:09;23.90;;;14.38;;
37791;SDS011;29527;55.766;37.570;2023-11-19T08:49:36;24.20;;;13.15;;
37791;SDS011;29527;55.766;37.570;2023-11-19T08:52:02;26.90;;;11.48;;
37791;SDS011;29527;55.766;37.570;2023-11-19T08:54:27;27.48;;;13.82;;
37791;SDS011;29527;55.766;37.570;2023-11-19T08:56:53;27.00;;;13.60;;
37791;SDS011;29527;55.766;37.570;2023-11-19T08:59:19;29.58;;;12.93;;
37791;SDS011;29527;55.766;37.570;2023-11-19T09:01:44;22.85;;;12.20;;
37791;SDS011;29527;55.766;37.570;2023-11-19T09:04:10;23.13;;;12.60;;
37791;SDS011;29527;55.766;37.570;2023-11-19T09:06:36;25.67;;;12.75;;
37791;SDS011;29527;55.766;37.570;2023-11-19T09:09:01;25.08;;;13.82;;
37791;SDS011;29527;55.766;37.570;2023-11-19T09:11:28;30.52;;;14.73;;
37791;SDS011;29527;55.766;37.570;2023-11-19T09:13:54;25.25;;;13.95;;
37791;SDS011;29527;55.766;37.570;2023-11-19T09:16:20;22.33;;;13.25;;
37791;SDS011;29527;55.766;37.570;2023-11-19T09:18:45;31.85;;;14.13;;
37791;SDS011;29527;55.766;37.570;2023-11-19T09:21:11;26.08;;;13.20;;
37791;SDS011;29527;55.766;37.570;2023-11-19T09:23:37;26.15;;;13.15;;
37791;SDS011;29527;55.766;37.570;2023-11-19T09:26:05;29.23;;;12.95;;
37791;SDS011;29527;55.766;37.570;2023-11-19T09:28:31;21.70;;;12.80;;
37791;SDS011;29527;55.766;37.570;2023-11-19T09:30:57;24.70;;;13.07;;
37791;SDS011;29527;55.766;37.570;2023-11-19T09:33:24;26.60;;;13.38;;
37791;SDS011;29527;55.766;37.570;2023-11-19T09:35:49;25.80;;;13.35;;
37791;SDS011;29527;55.766;37.570;2023-11-19T09:38:16;23.95;;;12.88;;
37791;SDS011;29527;55.766;37.570;2023-11-19T09:40:42;24.70;;;13.07;;
37791;SDS011;29527;55.766;37.570;2023-11-19T09:43:08;22.27;;;13.75;;
37791;SDS011;29527;55.766;37.570;2023-11-19T09:45:50;27.25;;;12.63;;
37791;SDS011;29527;55.766;37.570;2023-11-19T09:48:17;27.60;;;13.18;;
37791;SDS011;29527;55.766;37.570;2023-11-19T09:50:44;26.05;;;13.25;;
37791;SDS011;29527;55.766;37.570;2023-11-19T09:53:12;24.67;;;12.70;;
37791;SDS011;29527;55.766;37.570;2023-11-19T09:55:38;21.02;;;12.45;;
37791;SDS011;29527;55.766;37.570;2023-11-19T09:58:03;26.27;;;13.18;;
37791;SDS011;29527;55.766;37.570;2023-11-19T10:00:30;26.50;;;13.30;;
37791;SDS011;29527;55.766;37.570;2023-11-19T10:02:56;26.73;;;12.90;;
37791;SDS011;29527;55.766;37.570;2023-11-19T10:05:22;26.58;;;12.60;;
37791;SDS011;29527;55.766;37.570;2023-11-19T10:07:49;25.50;;;13.20;;
37791;SDS011;29527;55.766;37.570;2023-11-19T10:10:15;25.23;;;13.40;;
37791;SDS011;29527;55.766;37.570;2023-11-19T10:12:48;23.25;;;11.98;;
37791;SDS011;29527;55.766;37.570;2023-11-19T10:15:20;21.95;;;11.73;;
37791;SDS011;29527;55.766;37.570;2023-11-19T10:17:49;23.20;;;11.95;;
37791;SDS011;29527;55.766;37.570;2023-11-19T10:20:16;25.63;;;11.80;;
37791;SDS011;29527;55.766;37.570;2023-11-19T10:22:41;21.20;;;11.98;;
37791;SDS011;29527;55.766;37.570;2023-11-19T10:28:08;22.40;;;11.57;;
37791;SDS011;29527;55.766;37.570;2023-11-19T10:30:34;23.60;;;11.57;;
37791;SDS011;29527;55.766;37.570;2023-11-19T10:33:06;20.05;;;12.07;;
37791;SDS011;29527;55.766;37.570;2023-11-19T10:35:33;24.67;;;12.18;;
37791;SDS011;29527;55.766;37.570;2023-11-19T10:38:00;24.20;;;12.77;;
37791;SDS011;29527;55.766;37.570;2023-11-19T10:40:41;27.38;;;12.90;;
37791;SDS011;29527;55.766;37.570;2023-11-19T10:57:59;25.27;;;11.73;;
37791;SDS011;29527;55.766;37.570;2023-11-19T11:00:27;20.63;;;11.82;;
37791;SDS011;29527;55.766;37.570;2023-11-19T11:02:56;27.83;;;11.32;;
37791;SDS011;29527;55.766;37.570;2023-11-19T11:05:26;19.17;;;11.25;;
37791;SDS011;29527;55.766;37.570;2023-11-19T11:07:52;25.45;;;12.35;;
37791;SDS011;29527;55.766;37.570;2023-11-19T11:10:21;22.88;;;12.32;;
37791;SDS011;29527;55.766;37.570;2023-11-19T11:12:52;22.63;;;11.57;;
37791;SDS011;29527;55.766;37.570;2023-11-19T11:15:27;28.15;;;12.32;;
37791;SDS011;29527;55.766;37.570;2023-11-19T11:17:59;18.88;;;11.25;;
37791;SDS011;29527;55.766;37.570;2023-11-19T11:20:29;19.13;;;10.65;;
37791;SDS011;29527;55.766;37.570;2023-11-19T11:32:13;19.15;;;11.13;;
37791;SDS011;29527;55.766;37.570;2023-11-19T11:34:36;19.77;;;11.38;;
37791;SDS011;29527;55.766;37.570;2023-11-19T11:37:18;25.75;;;10.75;;
37791;SDS011;29527;55.766;37.570;2023-11-19T11:50:09;22.63;;;10.45;;
37791;SDS011;29527;55.766;37.570;2023-11-19T11:55:26;19.85;;;10.95;;
37791;SDS011;29527;55.766;37.570;2023-11-19T11:58:02;22.48;;;11.02;;
37791;SDS011;29527;55.766;37.570;2023-11-19T12:00:31;19.15;;;11.13;;
37791;SDS011;29527;55.766;37.570;2023-11-19T12:03:03;20.38;;;11.05;;
37791;SDS011;29527;55.766;37.570;2023-11-19T12:05:30;21.75;;;10.52;;
37791;SDS011;29527;55.766;37.570;2023-11-19T12:08:03;22.63;;;11.07;;
37791;SDS011;29527;55.766;37.570;2023-11-19T12:10:54;20.00;;;10.90;;
37791;SDS011;29527;55.766;37.570;2023-11-19T12:13:23;20.35;;;9.95;;
37791;SDS011;29527;55.766;37.570;2023-11-19T12:16:09;20.13;;;10.25;;
37791;SDS011;29527;55.766;37.570;2023-11-19T12:18:35;22.63;;;10.77;;
37791;SDS011;29527;55.766;37.570;2023-11-19T12:21:01;27.45;;;10.65;;
37791;SDS011;29527;55.766;37.570;2023-11-19T12:23:29;22.92;;;9.85;;
37791;SDS011;29527;55.766;37.570;2023-11-19T12:25:59;17.20;;;10.57;;
37791;SDS011;29527;55.766;37.570;2023-11-19T12:28:25;29.00;;;9.80;;
37791;SDS011;29527;55.766;37.570;2023-11-19T12:30:53;20.77;;;10.30;;
37791;SDS011;29527;55.766;37.570;2023-11-19T12:33:19;15.32;;;9.98;;
37791;SDS011;29527;55.766;37.570;2023-11-19T12:35:46;15.63;;;9.63;;
37791;SDS011;29527;55.766;37.570;2023-11-19T12:38:19;19.92;;;9.73;;
37791;SDS011;29527;55.766;37.570;2023-11-19T12:41:21;21.92;;;9.98;;
37791;SDS011;29527;55.766;37.570;2023-11-19T12:43:43;23.85;;;9.63;;
37791;SDS011;29527;55.766;37.570;2023-11-19T12:46:30;13.98;;;8.18;;
37791;SDS011;29527;55.766;37.570;2023-11-19T12:48:54;22.33;;;9.50;;
37791;SDS011;29527;55.766;37.570;2023-11-19T12:51:20;19.40;;;9.88;;
37791;SDS011;29527;55.766;37.570;2023-11-19T12:53:49;23.65;;;9.48;;
37791;SDS011;29527;55.766;37.570;2023-11-19T12:56:23;17.75;;;9.15;;
37791;SDS011;29527;55.766;37.570;2023-11-19T12:58:48;14.98;;;8.93;;
37791;SDS011;29527;55.766;37.570;2023-11-19T13:01:16;19.23;;;8.82;;
37791;SDS011;29527;55.766;37.570;2023-11-19T13:03:43;23.05;;;9.98;;
37791;SDS011;29527;55.766;37.570;2023-11-19T13:06:10;20.15;;;9.82;;
37791;SDS011;29527;55.766;37.570;2023-11-19T13:08:40;15.25;;;9.25;;
37791;SDS011;29527;55.766;37.570;2023-11-19T13:11:09;17.25;;;10.30;;
37791;SDS011;29527;55.766;37.570;2023-11-19T13:16:21;19.17;;;9.77;;
37791;SDS011;29527;55.766;37.570;2023-11-19T13:18:47;19.85;;;9.68;;
37791;SDS011;29527;55.766;37.570;2023-11-19T13:21:13;19.65;;;10.40;;
37791;SDS011;29527;55.766;37.570;2023-11-19T13:23:38;19.45;;;9.82;;
37791;SDS011;29527;55.766;37.570;2023-11-19T13:26:04;20.85;;;10.00;;
37791;SDS011;29527;55.766;37.570;2023-11-19T13:28:30;22.30;;;10.50;;
37791;SDS011;29527;55.766;37.570;2023-11-19T13:30:56;20.58;;;10.15;;
37791;SDS011;29527;55.766;37.570;2023-11-19T13:33:21;21.88;;;11.20;;
37791;SDS011;29527;55.766;37.570;2023-11-19T13:35:47;19.45;;;10.02;;
37791;SDS011;29527;55.766;37.570;2023-11-19T13:38:13;20.98;;;11.13;;
37791;SDS011;29527;55.766;37.570;2023-11-19T13:40:38;19.75;;;10.15;;
37791;SDS011;29527;55.766;37.570;2023-11-19T13:43:04;18.77;;;10.88;;
37791;SDS011;29527;55.766;37.570;2023-11-19T13:45:30;22.17;;;10.77;;
37791;SDS011;29527;55.766;37.570;2023-11-19T13:47:56;23.23;;;11.38;;
37791;SDS011;29527;55.766;37.570;2023-11-19T13:50:21;22.88;;;12.10;;
37791;SDS011;29527;55.766;37.570;2023-11-19T13:52:48;21.52;;;11.38;;
37791;SDS011;29527;55.766;37.570;2023-11-19T13:55:13;22.15;;;12.02;;
37791;SDS011;29527;55.766;37.570;2023-11-19T13:57:40;23.63;;;11.07;;
37791;SDS011;29527;55.766;37.570;2023-11-19T14:00:07;22.83;;;12.18;;
37791;SDS011;29527;55.766;37.570;2023-11-19T14:02:45;26.30;;;12.25;;
37791;SDS011;29527;55.766;37.570;2023-11-19T14:05:12;23.52;;;12.02;;
37791;SDS011;29527;55.766;37.570;2023-11-19T14:07:38;23.50;;;12.32;;
37791;SDS011;29527;55.766;37.570;2023-11-19T14:10:05;23.45;;;12.10;;
37791;SDS011;29527;55.766;37.570;2023-11-19T14:12:32;25.98;;;12.85;;
37791;SDS011;29527;55.766;37.570;2023-11-19T14:14:58;22.15;;;11.30;;
37791;SDS011;29527;55.766;37.570;2023-11-19T14:17:25;24.20;;;13.02;;
37791;SDS011;29527;55.766;37.570;2023-11-19T14:19:51;22.02;;;12.05;;
37791;SDS011;29527;55.766;37.570;2023-11-19T14:22:16;25.05;;;12.32;;
37791;SDS011;29527;55.766;37.570;2023-11-19T14:24:42;30.15;;;13.60;;
37791;SDS011;29527;55.766;37.570;2023-11-19T14:27:09;29.27;;;13.80;;
37791;SDS011;29527;55.766;37.570;2023-11-19T14:29:35;25.58;;;12.52;;
37791;SDS011;29527;55.766;37.570;2023-11-19T14:32:02;23.15;;;12.30;;
37791;SDS011;29527;55.766;37.570;2023-11-19T14:34:31;28.98;;;13.82;;
37791;SDS011;29527;55.766;37.570;2023-11-19T14:37:00;25.90;;;13.10;;
37791;SDS011;29527;55.766;37.570;2023-11-19T14:39:26;25.23;;;13.65;;
37791;SDS011;29527;55.766;37.570;2023-11-19T14:41:52;31.42;;;13.70;;
37791;SDS011;29527;55.766;37.570;2023-11-19T14:44:19;27.10;;;13.27;;
37791;SDS011;29527;55.766;37.570;2023-11-19T14:46:45;25.92;;;13.98;;
37791;SDS011;29527;55.766;37.570;2023-11-19T14:49:12;26.15;;;14.23;;
37791;SDS011;29527;55.766;37.570;2023-11-19T14:51:39;28.85;;;14.00;;
37791;SDS011;29527;55.766;37.570;2023-11-19T14:54:05;23.88;;;12.98;;
37791;SDS011;29527;55.766;37.570;2023-11-19T14:56:30;27.63;;;14.82;;
37791;SDS011;29527;55.766;37.570;2023-11-19T14:58:56;27.00;;;15.15;;